createdAt,value
2022-09-15T00:00:18.691Z,3.63
2022-09-15T00:00:51.379Z,4.10
2022-09-15T00:01:23.628Z,3.17
2022-09-15T00:01:55.381Z,3.42
2022-09-15T00:02:28.096Z,3.20
2022-09-15T00:02:59.938Z,3.00
2022-09-15T00:03:31.719Z,2.95
2022-09-15T00:04:03.953Z,3.45
2022-09-15T00:04:36.713Z,3.00
2022-09-15T00:05:08.955Z,2.70
2022-09-15T00:05:40.729Z,2.88
2022-09-15T00:06:12.769Z,2.92
2022-09-15T00:06:44.669Z,3.35
2022-09-15T00:07:16.408Z,2.55
2022-09-15T00:07:48.487Z,2.90
2022-09-15T00:08:20.259Z,4.07
2022-09-15T00:08:51.932Z,3.10
2022-09-15T00:09:23.711Z,2.63
2022-09-15T00:09:55.315Z,3.45
2022-09-15T00:10:28.863Z,3.20
2022-09-15T00:11:03.384Z,2.97
2022-09-15T00:11:37.263Z,3.63
2022-09-15T00:12:09.029Z,2.65
2022-09-15T00:12:40.685Z,3.25
2022-09-15T00:13:12.369Z,2.83
2022-09-15T00:13:44.960Z,2.92
2022-09-15T00:14:16.591Z,3.10
2022-09-15T00:14:48.296Z,2.67
2022-09-15T00:15:20.583Z,3.10
2022-09-15T00:15:52.725Z,2.88
2022-09-15T00:16:26.051Z,2.75
2022-09-15T00:16:57.831Z,2.60
2022-09-15T00:17:29.770Z,3.47
2022-09-15T00:18:01.617Z,3.20
2022-09-15T00:18:34.020Z,2.92
2022-09-15T00:19:06.784Z,2.92
2022-09-15T00:19:38.493Z,3.20
2022-09-15T00:20:10.689Z,2.90
2022-09-15T00:20:43.745Z,3.90
2022-09-15T00:21:18.375Z,3.30
2022-09-15T00:21:50.027Z,3.22
2022-09-15T00:22:22.015Z,2.75
2022-09-15T00:22:53.676Z,3.05
2022-09-15T00:23:25.384Z,3.03
2022-09-15T00:23:57.409Z,3.00
2022-09-15T00:24:29.186Z,3.28
2022-09-15T00:25:00.947Z,3.08
2022-09-15T00:25:32.565Z,3.47
2022-09-15T00:26:10.198Z,2.53
2022-09-15T00:26:41.940Z,3.08
2022-09-15T00:27:15.830Z,3.03
2022-09-15T00:27:47.762Z,3.55
2022-09-15T00:28:21.850Z,2.35
2022-09-15T00:28:53.828Z,2.42
2022-09-15T00:29:25.541Z,2.45
2022-09-15T00:29:57.254Z,2.50
2022-09-15T00:30:28.956Z,2.75
2022-09-15T00:31:00.735Z,3.35
2022-09-15T00:31:32.753Z,2.35
2022-09-15T00:32:04.480Z,2.70
2022-09-15T00:32:36.121Z,4.50
2022-09-15T00:33:07.779Z,2.83
2022-09-15T00:33:39.793Z,2.45
2022-09-15T00:34:13.038Z,3.40
2022-09-15T00:34:44.738Z,2.70
2022-09-15T00:35:16.484Z,2.60
2022-09-15T00:35:49.564Z,2.75
2022-09-15T00:36:22.706Z,2.45
2022-09-15T00:36:54.376Z,2.63
2022-09-15T00:37:26.274Z,2.65
2022-09-15T00:37:57.965Z,2.20
2022-09-15T00:38:31.163Z,2.55
2022-09-15T00:39:03.228Z,3.47
2022-09-15T00:39:35.101Z,2.50
2022-09-15T00:40:07.145Z,2.30
2022-09-15T00:40:46.038Z,1.98
2022-09-15T00:41:19.835Z,2.20
2022-09-15T00:41:51.823Z,3.05
2022-09-15T00:42:23.798Z,2.90
2022-09-15T00:42:55.417Z,2.70
2022-09-15T00:43:58.887Z,2.90
2022-09-15T00:44:36.703Z,2.60
2022-09-15T00:45:15.173Z,2.40
2022-09-15T00:45:47.760Z,3.08
2022-09-15T00:46:35.134Z,2.42
2022-09-15T00:47:19.289Z,2.55
2022-09-15T00:47:52.042Z,2.65
2022-09-15T00:48:23.764Z,2.85
2022-09-15T00:49:03.740Z,2.30
2022-09-15T00:49:37.386Z,2.58
2022-09-15T00:50:12.678Z,2.30
2022-09-15T00:50:47.570Z,2.40
2022-09-15T00:51:25.515Z,2.58
2022-09-15T00:52:07.412Z,2.53
2022-09-15T00:52:46.479Z,2.55
2022-09-15T00:53:19.197Z,3.30
2022-09-15T00:53:51.374Z,2.28
2022-09-15T00:54:30.422Z,2.42
2022-09-15T00:55:35.274Z,2.63
2022-09-15T00:56:07.867Z,2.78
2022-09-15T00:56:41.204Z,2.85
2022-09-15T00:57:21.345Z,2.92
2022-09-15T00:57:56.640Z,2.58
2022-09-15T00:58:34.984Z,2.30
2022-09-15T00:59:11.286Z,2.50
2022-09-15T00:59:43.787Z,2.85
2022-09-15T01:00:18.317Z,3.13
2022-09-15T01:00:56.657Z,2.70
2022-09-15T01:01:29.305Z,2.80
2022-09-15T01:02:14.952Z,2.60
2022-09-15T01:02:47.389Z,2.95
2022-09-15T01:03:19.749Z,2.20
2022-09-15T01:03:51.466Z,2.53
2022-09-15T01:04:23.077Z,3.25
2022-09-15T01:04:58.489Z,3.00
2022-09-15T01:05:38.419Z,3.17
2022-09-15T01:06:18.626Z,2.92
2022-09-15T01:06:57.587Z,2.60
2022-09-15T01:07:41.508Z,2.10
2022-09-15T01:08:33.360Z,2.00
2022-09-15T01:09:08.829Z,3.75
2022-09-15T01:09:46.307Z,2.92
2022-09-15T01:10:23.459Z,2.55
2022-09-15T01:10:56.436Z,3.22
2022-09-15T01:11:28.336Z,2.53
2022-09-15T01:12:00.217Z,2.92
2022-09-15T01:12:32.035Z,3.05
2022-09-15T01:13:12.585Z,3.05
2022-09-15T01:13:44.658Z,2.72
2022-09-15T01:14:16.478Z,2.85
2022-09-15T01:14:48.092Z,2.65
2022-09-15T01:15:21.709Z,3.15
2022-09-15T01:16:31.595Z,2.63
2022-09-15T01:17:09.326Z,2.95
2022-09-15T01:17:45.297Z,2.65
2022-09-15T01:18:20.591Z,2.45
2022-09-15T01:19:23.073Z,2.60
2022-09-15T01:20:28.457Z,3.67
2022-09-15T01:21:31.608Z,2.70
2022-09-15T01:22:37.781Z,2.75
2022-09-15T01:23:33.475Z,2.90
2022-09-15T01:24:14.212Z,2.95
2022-09-15T01:24:52.681Z,3.13
2022-09-15T01:25:59.862Z,2.80
2022-09-15T01:26:34.526Z,3.13
2022-09-15T01:27:30.883Z,4.03
2022-09-15T01:28:25.021Z,3.70
2022-09-15T01:29:07.389Z,3.13
2022-09-15T01:30:03.424Z,3.72
2022-09-15T01:30:41.226Z,3.45
2022-09-15T01:31:58.417Z,4.18
2022-09-15T01:32:51.369Z,3.47
2022-09-15T01:33:29.181Z,3.03
2022-09-15T01:34:12.768Z,3.42
2022-09-15T01:34:52.462Z,3.97
2022-09-15T01:35:48.741Z,3.13
2022-09-15T01:36:25.656Z,3.55
2022-09-15T01:37:02.801Z,4.45
2022-09-15T01:37:38.782Z,3.70
2022-09-15T01:38:28.647Z,3.55
2022-09-15T01:39:05.097Z,3.30
2022-09-15T01:39:40.527Z,3.63
2022-09-15T01:40:14.118Z,3.13
2022-09-15T01:41:08.096Z,3.70
2022-09-15T01:41:46.757Z,3.55
2022-09-15T01:42:18.805Z,4.03
2022-09-15T01:42:51.440Z,3.92
2022-09-15T01:43:24.929Z,3.45
2022-09-15T01:44:06.789Z,3.45
2022-09-15T01:44:42.835Z,3.40
2022-09-15T01:45:20.145Z,3.65
2022-09-15T01:45:52.876Z,3.55
2022-09-15T01:46:26.689Z,3.03
2022-09-15T01:47:01.572Z,4.00
2022-09-15T01:47:34.654Z,3.88
2022-09-15T01:48:07.247Z,3.25
2022-09-15T01:48:39.911Z,3.22
2022-09-15T01:49:16.898Z,3.30
2022-09-15T01:49:58.127Z,3.35
2022-09-15T01:50:34.265Z,3.15
2022-09-15T01:51:06.498Z,3.40
2022-09-15T01:51:39.554Z,3.05
2022-09-15T01:52:11.261Z,3.45
2022-09-15T01:52:45.245Z,3.20
2022-09-15T01:53:19.375Z,4.03
2022-09-15T01:53:53.226Z,4.13
2022-09-15T01:54:30.884Z,3.92
2022-09-15T01:55:09.095Z,3.55
2022-09-15T01:55:45.030Z,3.10
2022-09-15T01:56:16.868Z,3.35
2022-09-15T01:56:48.480Z,3.47
2022-09-15T01:57:21.534Z,3.80
2022-09-15T01:57:53.311Z,3.40
2022-09-15T01:58:24.937Z,3.60
2022-09-15T01:58:56.620Z,3.25
2022-09-15T01:59:31.199Z,4.43
2022-09-15T02:00:04.268Z,3.30
2022-09-15T02:00:41.982Z,4.40
2022-09-15T02:01:20.030Z,3.83
2022-09-15T02:02:01.964Z,3.35
2022-09-15T02:02:40.775Z,3.55
2022-09-15T02:03:20.339Z,3.42
2022-09-15T02:04:18.032Z,3.70
2022-09-15T02:04:53.309Z,3.05
2022-09-15T02:05:33.804Z,3.67
2022-09-15T02:06:14.670Z,3.33
2022-09-15T02:07:45.117Z,3.90
2022-09-15T02:08:31.501Z,3.65
2022-09-15T02:09:09.212Z,3.67
2022-09-15T02:09:50.565Z,3.45
2022-09-15T02:10:30.981Z,3.40
2022-09-15T02:11:18.385Z,3.25
2022-09-15T02:11:56.503Z,3.38
2022-09-15T02:12:35.475Z,3.55
2022-09-15T02:13:17.133Z,3.05
2022-09-15T02:14:11.592Z,3.53
2022-09-15T02:15:08.759Z,3.33
2022-09-15T02:15:48.493Z,3.42
2022-09-15T02:16:25.286Z,2.83
2022-09-15T02:16:58.075Z,3.30
2022-09-15T02:17:32.720Z,3.67
2022-09-15T02:18:06.161Z,3.70
2022-09-15T02:18:48.017Z,4.43
2022-09-15T02:19:41.850Z,3.63
2022-09-15T02:20:25.476Z,2.65
2022-09-15T02:21:12.743Z,3.17
2022-09-15T02:22:02.920Z,3.60
2022-09-15T02:22:37.861Z,3.03
2022-09-15T02:23:25.666Z,3.80
2022-09-15T02:24:05.352Z,3.78
2022-09-15T02:24:41.136Z,4.18
2022-09-15T02:25:17.850Z,2.97
2022-09-15T02:25:53.377Z,3.95
2022-09-15T02:26:26.933Z,3.97
2022-09-15T02:26:59.741Z,3.78
2022-09-15T02:27:35.117Z,3.22
2022-09-15T02:28:09.008Z,3.50
2022-09-15T02:28:41.807Z,3.72
2022-09-15T02:29:16.957Z,3.83
2022-09-15T02:29:49.066Z,3.53
2022-09-15T02:30:21.513Z,4.15
2022-09-15T02:30:54.295Z,4.45
2022-09-15T02:31:27.298Z,3.50
2022-09-15T02:32:02.646Z,4.78
2022-09-15T02:32:40.877Z,4.18
2022-09-15T02:33:16.913Z,4.82
2022-09-15T02:33:55.553Z,4.03
2022-09-15T02:34:32.759Z,5.07
2022-09-15T02:35:06.998Z,4.82
2022-09-15T02:35:39.434Z,4.45
2022-09-15T02:36:13.921Z,4.80
2022-09-15T02:36:46.890Z,4.13
2022-09-15T02:37:21.416Z,4.70
2022-09-15T02:37:53.293Z,5.50
2022-09-15T02:38:26.755Z,6.53
2022-09-15T02:39:04.149Z,5.82
2022-09-15T02:39:39.071Z,7.22
2022-09-15T02:40:11.671Z,4.55
2022-09-15T02:40:44.501Z,5.28
2022-09-15T02:41:16.268Z,4.70
2022-09-15T02:41:51.522Z,4.80
2022-09-15T02:42:28.149Z,4.88
2022-09-15T02:43:01.887Z,5.32
2022-09-15T02:43:34.193Z,4.88
2022-09-15T02:44:06.024Z,5.20
2022-09-15T02:44:38.005Z,5.00
2022-09-15T02:45:09.947Z,4.82
2022-09-15T02:45:41.856Z,5.63
2022-09-15T02:46:15.905Z,5.60
2022-09-15T02:46:47.790Z,5.40
2022-09-15T02:47:19.781Z,5.88
2022-09-15T02:47:51.602Z,5.70
2022-09-15T02:48:25.353Z,5.57
2022-09-15T02:49:00.008Z,5.72
2022-09-15T02:49:31.739Z,5.55
2022-09-15T02:50:03.963Z,5.88
2022-09-15T02:50:36.783Z,5.95
2022-09-15T02:51:08.577Z,5.60
2022-09-15T02:51:40.464Z,5.60
2022-09-15T02:52:12.640Z,6.05
2022-09-15T02:52:44.457Z,5.50
2022-09-15T02:53:16.189Z,6.25
2022-09-15T02:53:47.985Z,5.70
2022-09-15T02:54:19.923Z,5.97
2022-09-15T02:54:54.447Z,5.55
2022-09-15T02:55:29.432Z,6.07
2022-09-15T02:56:01.271Z,6.25
2022-09-15T02:56:36.063Z,6.43
2022-09-15T02:57:07.688Z,6.78
2022-09-15T02:57:39.583Z,6.25
2022-09-15T02:58:11.263Z,5.45
2022-09-15T02:58:43.685Z,5.57
2022-09-15T02:59:15.563Z,5.53
2022-09-15T03:00:06.037Z,6.05
2022-09-15T03:00:38.614Z,6.25
2022-09-15T03:01:15.674Z,6.30
2022-09-15T03:01:47.639Z,6.05
2022-09-15T03:02:20.638Z,5.38
2022-09-15T03:02:54.554Z,6.22
2022-09-15T03:03:26.248Z,6.78
2022-09-15T03:03:58.952Z,5.40
2022-09-15T03:04:30.607Z,6.15
2022-09-15T03:05:02.197Z,5.03
2022-09-15T03:05:33.926Z,5.75
2022-09-15T03:06:18.176Z,6.15
2022-09-15T03:06:49.856Z,5.28
2022-09-15T03:07:21.749Z,5.30
2022-09-15T03:07:54.471Z,5.95
2022-09-15T03:08:28.032Z,5.95
2022-09-15T03:09:05.127Z,5.28
2022-09-15T03:09:37.445Z,5.35
2022-09-15T03:10:10.759Z,5.70
2022-09-15T03:10:42.356Z,4.78
2022-09-15T03:11:15.660Z,5.10
2022-09-15T03:11:47.378Z,5.15
2022-09-15T03:12:19.164Z,4.82
2022-09-15T03:12:55.404Z,5.90
2022-09-15T03:13:27.079Z,5.15
2022-09-15T03:14:01.188Z,5.18
2022-09-15T03:14:32.930Z,4.97
2022-09-15T03:15:05.735Z,6.38
2022-09-15T03:15:37.686Z,5.20
2022-09-15T03:16:14.038Z,4.75
2022-09-15T03:16:45.884Z,5.80
2022-09-15T03:17:18.399Z,5.28
2022-09-15T03:17:50.619Z,5.40
2022-09-15T03:18:22.224Z,5.32
2022-09-15T03:18:55.685Z,5.65
2022-09-15T03:19:27.490Z,5.18
2022-09-15T03:19:59.710Z,5.00
2022-09-15T03:20:31.509Z,5.20
2022-09-15T03:21:03.895Z,4.72
2022-09-15T03:21:36.336Z,5.07
2022-09-15T03:22:09.483Z,5.72
2022-09-15T03:22:41.340Z,4.95
2022-09-15T03:23:13.020Z,5.25
2022-09-15T03:23:45.334Z,4.93
2022-09-15T03:24:18.956Z,5.25
2022-09-15T03:24:51.859Z,4.93
2022-09-15T03:25:27.065Z,4.72
2022-09-15T03:25:59.558Z,5.03
2022-09-15T03:26:31.251Z,4.88
2022-09-15T03:27:03.027Z,5.43
2022-09-15T03:27:35.637Z,4.75
2022-09-15T03:28:07.359Z,5.45
2022-09-15T03:28:39.569Z,4.55
2022-09-15T03:29:11.233Z,5.05
2022-09-15T03:29:42.947Z,5.18
2022-09-15T03:30:15.114Z,4.15
2022-09-15T03:30:48.168Z,4.63
2022-09-15T03:31:20.005Z,4.85
2022-09-15T03:31:51.762Z,5.00
2022-09-15T03:32:23.764Z,5.30
2022-09-15T03:32:55.433Z,4.65
2022-09-15T03:33:27.252Z,4.88
2022-09-15T03:33:59.056Z,5.63
2022-09-15T03:34:31.839Z,5.32
2022-09-15T03:35:04.757Z,4.80
2022-09-15T03:35:38.786Z,4.47
2022-09-15T03:36:10.478Z,5.50
2022-09-15T03:36:42.331Z,4.75
2022-09-15T03:37:14.029Z,5.18
2022-09-15T03:37:45.961Z,4.57
2022-09-15T03:38:18.831Z,5.10
2022-09-15T03:38:50.576Z,4.63
2022-09-15T03:39:22.459Z,4.68
2022-09-15T03:39:54.159Z,5.00
2022-09-15T03:40:25.933Z,4.68
2022-09-15T03:41:02.864Z,4.57
2022-09-15T03:41:34.725Z,4.65
2022-09-15T03:42:06.506Z,4.13
2022-09-15T03:42:38.314Z,4.32
2022-09-15T03:43:14.265Z,4.78
2022-09-15T03:43:48.450Z,4.85
2022-09-15T03:44:20.112Z,4.50
2022-09-15T03:44:51.733Z,5.15
2022-09-15T03:45:23.461Z,5.15
2022-09-15T03:45:56.145Z,5.47
2022-09-15T03:46:27.985Z,6.28
2022-09-15T03:46:59.763Z,5.50
2022-09-15T03:47:32.364Z,5.55
2022-09-15T03:48:07.862Z,5.15
2022-09-15T03:48:40.584Z,5.45
2022-09-15T03:49:12.657Z,4.68
2022-09-15T03:49:44.299Z,5.00
2022-09-15T03:50:16.066Z,4.55
2022-09-15T03:50:47.943Z,4.95
2022-09-15T03:51:19.712Z,5.47
2022-09-15T03:51:51.975Z,4.72
2022-09-15T03:52:23.639Z,5.15
2022-09-15T03:52:58.755Z,4.63
2022-09-15T03:53:35.217Z,5.85
2022-09-15T03:54:07.562Z,5.05
2022-09-15T03:54:40.093Z,5.05
2022-09-15T03:55:13.016Z,5.57
2022-09-15T03:55:45.639Z,4.85
2022-09-15T03:56:26.754Z,5.05
2022-09-15T03:56:58.972Z,5.07
2022-09-15T03:57:30.641Z,4.47
2022-09-15T03:58:02.478Z,4.97
2022-09-15T03:58:34.215Z,4.78
2022-09-15T03:59:06.221Z,4.88
2022-09-15T03:59:37.988Z,5.35
2022-09-15T04:00:10.243Z,4.57
2022-09-15T04:00:42.004Z,5.15
2022-09-15T04:01:13.710Z,4.13
2022-09-15T04:01:46.018Z,4.38
2022-09-15T04:02:17.775Z,4.57
2022-09-15T04:02:49.503Z,4.25
2022-09-15T04:03:21.666Z,4.65
2022-09-15T04:03:53.484Z,4.35
2022-09-15T04:04:25.140Z,6.00
2022-09-15T04:04:56.961Z,4.18
2022-09-15T04:05:28.961Z,5.68
2022-09-15T04:06:00.688Z,4.60
2022-09-15T04:06:32.467Z,4.80
2022-09-15T04:07:04.078Z,4.45
2022-09-15T04:07:35.761Z,4.63
2022-09-15T04:08:07.521Z,4.65
2022-09-15T04:08:39.433Z,5.63
2022-09-15T04:09:11.132Z,5.68
2022-09-15T04:09:42.844Z,4.70
2022-09-15T04:10:15.072Z,5.30
2022-09-15T04:10:46.727Z,4.40
2022-09-15T04:11:21.628Z,4.72
2022-09-15T04:11:53.272Z,3.90
2022-09-15T04:12:24.919Z,4.38
2022-09-15T04:12:57.150Z,4.65
2022-09-15T04:13:28.915Z,3.97
2022-09-15T04:14:00.695Z,4.60
2022-09-15T04:14:32.317Z,4.50
2022-09-15T04:15:04.583Z,4.57
2022-09-15T04:15:36.488Z,5.45
2022-09-15T04:16:10.678Z,4.72
2022-09-15T04:16:42.446Z,4.60
2022-09-15T04:17:15.591Z,5.13
2022-09-15T04:17:47.755Z,4.82
2022-09-15T04:18:19.351Z,4.93
2022-09-15T04:18:52.881Z,4.95
2022-09-15T04:19:24.653Z,4.53
2022-09-15T04:19:56.447Z,5.93
2022-09-15T04:20:28.223Z,5.07
2022-09-15T04:21:05.944Z,4.95
2022-09-15T04:21:37.599Z,4.65
2022-09-15T04:22:13.203Z,5.10
2022-09-15T04:22:47.356Z,5.88
2022-09-15T04:23:19.044Z,4.75
2022-09-15T04:23:54.049Z,5.10
2022-09-15T04:24:25.649Z,5.50
2022-09-15T04:24:57.963Z,4.72
2022-09-15T04:25:29.622Z,4.32
2022-09-15T04:26:03.587Z,4.85
2022-09-15T04:26:36.886Z,4.93
2022-09-15T04:27:10.996Z,4.65
2022-09-15T04:27:42.925Z,5.60
2022-09-15T04:28:14.828Z,6.05
2022-09-15T04:28:46.496Z,4.50
2022-09-15T04:29:18.847Z,4.93
2022-09-15T04:29:52.234Z,5.68
2022-09-15T04:30:24.180Z,5.07
2022-09-15T04:31:08.025Z,5.97
2022-09-15T04:31:39.967Z,4.97
2022-09-15T04:32:11.659Z,6.95
2022-09-15T04:32:43.294Z,4.97
2022-09-15T04:33:15.073Z,4.97
2022-09-15T04:33:47.747Z,5.00
2022-09-15T04:34:19.406Z,5.20
2022-09-15T04:34:51.076Z,5.07
2022-09-15T04:35:23.025Z,4.72
2022-09-15T04:36:08.075Z,5.07
2022-09-15T04:36:39.701Z,5.43
2022-09-15T04:37:11.477Z,5.10
2022-09-15T04:37:43.070Z,5.43
2022-09-15T04:38:14.820Z,5.60
2022-09-15T04:38:47.357Z,5.47
2022-09-15T04:39:19.810Z,5.60
2022-09-15T04:39:51.498Z,5.40
2022-09-15T04:40:23.268Z,4.70
2022-09-15T04:40:56.330Z,5.75
2022-09-15T04:41:28.577Z,5.50
2022-09-15T04:42:00.624Z,4.45
2022-09-15T04:42:32.294Z,5.20
2022-09-15T04:43:04.620Z,5.57
2022-09-15T04:43:36.579Z,5.32
2022-09-15T04:44:08.749Z,5.25
2022-09-15T04:44:40.449Z,4.97
2022-09-15T04:45:12.327Z,5.05
2022-09-15T04:45:44.073Z,5.45
2022-09-15T04:46:16.795Z,5.07
2022-09-15T04:46:48.919Z,4.70
2022-09-15T04:47:20.799Z,5.85
2022-09-15T04:47:53.402Z,4.30
2022-09-15T04:48:25.778Z,4.38
2022-09-15T04:48:57.439Z,4.57
2022-09-15T04:49:29.094Z,3.97
2022-09-15T04:50:00.710Z,4.53
2022-09-15T04:50:32.474Z,4.50
2022-09-15T04:51:13.847Z,4.40
2022-09-15T04:51:45.501Z,4.38
2022-09-15T04:52:19.537Z,4.57
2022-09-15T04:52:52.143Z,4.95
2022-09-15T04:53:23.841Z,4.30
2022-09-15T04:53:55.693Z,4.47
2022-09-15T04:54:27.302Z,4.10
2022-09-15T04:54:59.032Z,4.22
2022-09-15T04:55:32.151Z,4.97
2022-09-15T04:56:05.920Z,5.05
2022-09-15T04:56:38.611Z,5.30
2022-09-15T04:57:10.766Z,4.28
2022-09-15T04:57:42.419Z,4.70
2022-09-15T04:58:14.362Z,5.53
2022-09-15T04:58:54.087Z,4.20
2022-09-15T04:59:25.753Z,4.85
2022-09-15T04:59:57.337Z,4.70
2022-09-15T05:00:30.600Z,4.15
2022-09-15T05:01:10.842Z,4.32
2022-09-15T05:01:43.095Z,4.70
2022-09-15T05:02:14.822Z,4.55
2022-09-15T05:02:46.479Z,5.45
2022-09-15T05:03:18.114Z,4.72
2022-09-15T05:03:51.035Z,4.22
2022-09-15T05:04:22.805Z,4.93
2022-09-15T05:04:54.675Z,4.03
2022-09-15T05:05:27.047Z,4.43
2022-09-15T05:05:58.798Z,3.92
2022-09-15T05:06:30.547Z,5.13
2022-09-15T05:07:02.457Z,4.82
2022-09-15T05:07:34.084Z,4.90
2022-09-15T05:08:06.166Z,5.00
2022-09-15T05:08:38.550Z,4.38
2022-09-15T05:09:13.195Z,4.78
2022-09-15T05:09:44.883Z,4.50
2022-09-15T05:10:16.686Z,5.07
2022-09-15T05:10:48.300Z,3.90
2022-09-15T05:11:20.320Z,4.80
2022-09-15T05:11:51.930Z,4.55
2022-09-15T05:12:23.556Z,4.40
2022-09-15T05:12:55.309Z,4.07
2022-09-15T05:13:27.229Z,4.20
2022-09-15T05:14:00.127Z,3.88
2022-09-15T05:14:32.306Z,4.82
2022-09-15T05:15:04.548Z,3.85
2022-09-15T05:15:36.299Z,4.03
2022-09-15T05:16:09.951Z,4.47
2022-09-15T05:16:41.813Z,3.90
2022-09-15T05:17:13.472Z,3.90
2022-09-15T05:17:45.228Z,4.28
2022-09-15T05:18:16.832Z,4.53
2022-09-15T05:18:49.679Z,4.30
2022-09-15T05:19:21.388Z,4.32
2022-09-15T05:19:53.039Z,4.80
2022-09-15T05:20:24.653Z,4.05
2022-09-15T05:21:03.328Z,4.28
2022-09-15T05:21:35.152Z,3.97
2022-09-15T05:22:07.153Z,4.13
2022-09-15T05:22:41.830Z,4.40
2022-09-15T05:23:14.096Z,4.10
2022-09-15T05:23:46.448Z,3.53
2022-09-15T05:24:18.131Z,4.07
2022-09-15T05:24:49.766Z,3.88
2022-09-15T05:25:21.561Z,3.53
2022-09-15T05:26:00.580Z,3.90
2022-09-15T05:26:32.567Z,3.80
2022-09-15T05:27:04.481Z,4.10
2022-09-15T05:27:36.350Z,4.70
2022-09-15T05:28:08.068Z,3.58
2022-09-15T05:28:39.992Z,3.67
2022-09-15T05:29:11.647Z,4.45
2022-09-15T05:29:43.327Z,3.65
2022-09-15T05:30:36.678Z,3.70
2022-09-15T05:31:13.659Z,3.72
2022-09-15T05:31:45.355Z,4.00
2022-09-15T05:32:17.015Z,3.83
2022-09-15T05:32:48.687Z,4.40
2022-09-15T05:33:22.105Z,3.90
2022-09-15T05:33:54.370Z,4.15
2022-09-15T05:34:25.985Z,4.18
2022-09-15T05:34:58.122Z,3.78
2022-09-15T05:35:29.792Z,3.45
2022-09-15T05:36:01.632Z,3.63
2022-09-15T05:36:33.842Z,4.45
2022-09-15T05:37:05.683Z,3.63
2022-09-15T05:37:37.471Z,4.25
2022-09-15T05:38:09.557Z,4.47
2022-09-15T05:38:41.455Z,3.55
2022-09-15T05:39:13.277Z,3.70
2022-09-15T05:39:44.967Z,4.55
2022-09-15T05:40:16.863Z,4.10
2022-09-15T05:40:49.047Z,4.25
2022-09-15T05:41:21.071Z,3.45
2022-09-15T05:41:52.723Z,4.00
2022-09-15T05:42:24.350Z,3.63
2022-09-15T05:42:55.986Z,3.63
2022-09-15T05:43:30.907Z,4.10
2022-09-15T05:44:03.008Z,3.63
2022-09-15T05:44:35.096Z,3.55
2022-09-15T05:45:07.627Z,4.05
2022-09-15T05:45:41.707Z,4.50
2022-09-15T05:46:14.484Z,3.63
2022-09-15T05:46:46.170Z,3.55
2022-09-15T05:47:17.864Z,4.32
2022-09-15T05:47:50.335Z,3.05
2022-09-15T05:48:22.380Z,4.72
2022-09-15T05:48:55.920Z,3.45
2022-09-15T05:49:29.505Z,4.43
2022-09-15T05:50:01.350Z,3.95
2022-09-15T05:50:33.200Z,3.47
2022-09-15T05:51:05.413Z,3.47
2022-09-15T05:51:37.150Z,3.53
2022-09-15T05:52:08.830Z,3.50
2022-09-15T05:52:40.485Z,3.70
2022-09-15T05:53:12.090Z,3.55
2022-09-15T05:53:43.684Z,4.93
2022-09-15T05:54:15.332Z,3.35
2022-09-15T05:54:47.494Z,3.97
2022-09-15T05:55:19.169Z,4.00
2022-09-15T05:55:58.285Z,4.88
2022-09-15T05:56:29.988Z,3.65
2022-09-15T05:57:01.708Z,3.97
2022-09-15T05:57:33.401Z,4.28
2022-09-15T05:58:05.290Z,4.70
2022-09-15T05:58:39.603Z,4.22
2022-09-15T05:59:11.253Z,4.35
2022-09-15T05:59:43.979Z,4.80
2022-09-15T06:00:15.861Z,4.20
2022-09-15T06:00:47.458Z,4.60
2022-09-15T06:01:21.407Z,3.70
2022-09-15T06:01:53.062Z,4.43
2022-09-15T06:02:24.811Z,4.38
2022-09-15T06:02:56.581Z,5.00
2022-09-15T06:03:30.949Z,4.82
2022-09-15T06:04:02.951Z,4.75
2022-09-15T06:04:34.883Z,5.40
2022-09-15T06:05:06.870Z,3.58
2022-09-15T06:05:38.484Z,4.43
2022-09-15T06:06:10.581Z,3.83
2022-09-15T06:06:42.376Z,4.43
2022-09-15T06:07:14.185Z,4.53
2022-09-15T06:07:45.792Z,4.13
2022-09-15T06:08:17.476Z,4.18
2022-09-15T06:08:56.854Z,3.47
2022-09-15T06:09:29.546Z,4.30
2022-09-15T06:10:01.184Z,4.07
2022-09-15T06:10:33.251Z,4.03
2022-09-15T06:11:10.240Z,3.53
2022-09-15T06:11:41.827Z,4.35
2022-09-15T06:12:14.275Z,4.05
2022-09-15T06:12:46.045Z,4.10
2022-09-15T06:13:17.882Z,4.43
2022-09-15T06:13:50.460Z,4.07
2022-09-15T06:14:22.110Z,3.95
2022-09-15T06:14:53.935Z,3.25
2022-09-15T06:15:25.887Z,4.03
2022-09-15T06:16:01.947Z,4.35
2022-09-15T06:16:35.003Z,3.70
2022-09-15T06:17:06.715Z,3.85
2022-09-15T06:17:38.352Z,3.42
2022-09-15T06:18:09.934Z,3.88
2022-09-15T06:18:42.037Z,3.75
2022-09-15T06:19:14.044Z,3.40
2022-09-15T06:19:45.882Z,3.40
2022-09-15T06:20:18.853Z,3.47
2022-09-15T06:20:50.471Z,2.97
2022-09-15T06:21:24.576Z,3.40
2022-09-15T06:21:56.299Z,3.40
2022-09-15T06:22:28.374Z,4.53
2022-09-15T06:23:00.331Z,3.20
2022-09-15T06:23:32.492Z,3.38
2022-09-15T06:24:07.408Z,3.83
2022-09-15T06:24:39.103Z,2.80
2022-09-15T06:25:11.827Z,3.97
2022-09-15T06:25:44.445Z,3.80
2022-09-15T06:26:18.680Z,3.75
2022-09-15T06:26:50.453Z,3.15
2022-09-15T06:27:22.525Z,3.92
2022-09-15T06:27:54.799Z,4.03
2022-09-15T06:28:26.422Z,3.70
2022-09-15T06:29:00.641Z,3.15
2022-09-15T06:29:32.594Z,3.40
2022-09-15T06:30:04.585Z,3.42
2022-09-15T06:30:39.498Z,4.03
2022-09-15T06:31:13.244Z,3.10
2022-09-15T06:31:44.876Z,3.13
2022-09-15T06:32:16.783Z,3.30
2022-09-15T06:32:49.201Z,3.70
2022-09-15T06:33:20.965Z,3.13
2022-09-15T06:33:54.167Z,2.97
2022-09-15T06:34:26.197Z,3.53
2022-09-15T06:34:57.944Z,2.97
2022-09-15T06:35:29.690Z,3.33
2022-09-15T06:36:02.760Z,3.67
2022-09-15T06:36:36.627Z,3.90
2022-09-15T06:37:08.442Z,3.58
2022-09-15T06:37:40.168Z,3.38
2022-09-15T06:38:12.042Z,3.08
2022-09-15T06:38:44.452Z,3.20
2022-09-15T06:39:16.164Z,2.92
2022-09-15T06:39:47.852Z,3.25
2022-09-15T06:40:19.595Z,3.50
2022-09-15T06:40:58.040Z,3.15
2022-09-15T06:41:47.081Z,4.10
2022-09-15T06:42:22.739Z,3.67
2022-09-15T06:42:57.246Z,2.95
2022-09-15T06:43:30.874Z,3.05
2022-09-15T06:44:02.856Z,4.35
2022-09-15T06:44:34.586Z,2.67
2022-09-15T06:45:06.823Z,3.28
2022-09-15T06:45:38.429Z,3.45
2022-09-15T06:46:13.130Z,3.28
2022-09-15T06:46:44.799Z,2.97
2022-09-15T06:47:16.714Z,3.28
2022-09-15T06:48:02.081Z,3.50
2022-09-15T06:48:42.250Z,3.78
2022-09-15T06:49:15.198Z,5.05
2022-09-15T06:49:49.337Z,6.43
2022-09-15T06:50:21.790Z,3.30
2022-09-15T06:50:54.977Z,3.15
2022-09-15T06:51:28.816Z,3.13
2022-09-15T06:52:02.534Z,3.90
2022-09-15T06:52:34.329Z,3.78
2022-09-15T06:53:05.911Z,3.20
2022-09-15T06:53:38.358Z,3.00
2022-09-15T06:54:09.938Z,3.35
2022-09-15T06:54:41.548Z,2.85
2022-09-15T06:55:13.287Z,3.58
2022-09-15T06:55:44.932Z,3.30
2022-09-15T06:56:20.807Z,2.72
2022-09-15T06:56:52.693Z,3.33
2022-09-15T06:57:24.357Z,2.97
2022-09-15T06:57:56.146Z,2.65
2022-09-15T06:58:27.724Z,2.92
2022-09-15T06:59:00.149Z,2.63
2022-09-15T06:59:32.115Z,3.17
2022-09-15T07:00:05.348Z,2.83
2022-09-15T07:00:37.097Z,3.08
2022-09-15T07:01:33.116Z,3.28
2022-09-15T07:02:05.443Z,3.00
2022-09-15T07:02:37.862Z,2.67
2022-09-15T07:03:09.857Z,3.10
2022-09-15T07:03:44.067Z,2.58
2022-09-15T07:04:15.846Z,2.35
2022-09-15T07:04:47.801Z,3.35
2022-09-15T07:05:19.442Z,2.30
2022-09-15T07:05:51.244Z,2.72
2022-09-15T07:06:23.320Z,3.33
2022-09-15T07:06:55.192Z,3.20
2022-09-15T07:07:27.684Z,2.47
2022-09-15T07:07:59.701Z,2.13
2022-09-15T07:08:31.475Z,3.30
2022-09-15T07:09:04.112Z,3.13
2022-09-15T07:09:38.799Z,2.53
2022-09-15T07:10:12.694Z,3.90
2022-09-15T07:10:45.168Z,2.22
2022-09-15T07:11:18.238Z,2.95
2022-09-15T07:11:49.897Z,2.53
2022-09-15T07:12:21.606Z,2.70
2022-09-15T07:12:53.266Z,2.40
2022-09-15T07:13:25.392Z,3.15
2022-09-15T07:13:57.412Z,2.53
2022-09-15T07:14:29.405Z,4.22
2022-09-15T07:15:01.103Z,3.17
2022-09-15T07:15:32.846Z,2.20
2022-09-15T07:16:07.450Z,2.33
2022-09-15T07:16:39.438Z,2.92
2022-09-15T07:17:11.251Z,2.38
2022-09-15T07:17:43.119Z,3.00
2022-09-15T07:18:14.746Z,2.88
2022-09-15T07:18:47.250Z,2.25
2022-09-15T07:19:18.887Z,2.85
2022-09-15T07:19:50.580Z,2.42
2022-09-15T07:20:22.895Z,3.38
2022-09-15T07:21:08.793Z,2.22
2022-09-15T07:21:40.550Z,1.98
2022-09-15T07:22:12.271Z,2.10
2022-09-15T07:22:44.289Z,1.98
2022-09-15T07:23:16.054Z,2.55
2022-09-15T07:23:48.713Z,1.92
2022-09-15T07:24:20.381Z,1.92
2022-09-15T07:24:52.059Z,2.15
2022-09-15T07:25:23.909Z,1.90
2022-09-15T07:26:07.472Z,2.40
2022-09-15T07:26:39.163Z,2.15
2022-09-15T07:27:11.076Z,1.88
2022-09-15T07:27:43.023Z,2.10
2022-09-15T07:28:15.516Z,2.83
2022-09-15T07:28:52.402Z,2.45
2022-09-15T07:29:24.157Z,1.90
2022-09-15T07:29:55.955Z,2.30
2022-09-15T07:30:27.834Z,2.38
2022-09-15T07:30:59.774Z,1.77
2022-09-15T07:31:32.994Z,2.50
2022-09-15T07:32:05.926Z,2.00
2022-09-15T07:32:37.916Z,2.08
2022-09-15T07:33:12.188Z,2.28
2022-09-15T07:33:44.534Z,2.35
2022-09-15T07:34:16.210Z,2.47
2022-09-15T07:34:47.936Z,2.00
2022-09-15T07:35:21.785Z,2.40
2022-09-15T07:35:53.443Z,2.47